Flatwoods, Tennessee
Current Conditions -  °F | °C
As of 7:35 PM on Sunday 23 Nov 2014 (Local Time) from KPVE Reporting Station
Overcast Overcast  
Wind Chill: 61°   Ceiling: 1600
Heat Index: 61°   Visibility: 10mi
Dew Point: 57°   Wind: 15mph
Humidity: 88%   Direction: 220°SW
Pressure: 29.42"   Gusts: NA
Location:  35.5798°N, 87.8504°W
Report Text: KPVE 240135Z AUTO 22013KT 10SM OVC016 16/14 A2942 RMK
Loading
Personal Weather Stations






























Interactive Weather Map New forecast layout! Learn more

10-Day Weather Forecast

Advertisements
Track Severe Weather on mobile